createdAt,value
2017-11-12T00:00:56.174Z,999.12
2017-11-12T00:02:06.165Z,999.19
2017-11-12T00:03:16.477Z,999.17
2017-11-12T00:04:25.804Z,999.19
2017-11-12T00:05:35.438Z,999.2
2017-11-12T00:06:45.409Z,999.2
2017-11-12T00:07:55.046Z,999.16
2017-11-12T00:09:04.691Z,999.21
2017-11-12T00:10:14.662Z,999.18
2017-11-12T00:11:24.643Z,999.14
2017-11-12T00:12:34.955Z,999.28
2017-11-12T00:13:44.605Z,999.18
2017-11-12T00:14:54.900Z,999.23
2017-11-12T00:16:05.192Z,999.23
2017-11-12T00:17:15.504Z,999.28
2017-11-12T00:18:25.864Z,999.17
2017-11-12T00:19:36.172Z,999.12
2017-11-12T00:20:46.507Z,999.15
2017-11-12T00:21:56.817Z,999.15
2017-11-12T00:23:07.120Z,999.1
2017-11-12T00:24:17.085Z,999.2
2017-11-12T00:25:27.049Z,999.23
2017-11-12T00:26:37.383Z,999.21
2017-11-12T00:27:47.359Z,999.27
2017-11-12T00:28:57.323Z,999.06
2017-11-12T00:30:07.650Z,999.11
2017-11-12T00:31:17.968Z,999.03
2017-11-12T00:32:28.288Z,999.05
2017-11-12T00:33:38.273Z,999.07
2017-11-12T00:34:48.253Z,999.18
2017-11-12T00:35:58.227Z,999.14
2017-11-12T00:37:08.202Z,999.13
2017-11-12T00:38:18.174Z,999.1
2017-11-12T00:39:28.162Z,999.16
2017-11-12T00:40:38.469Z,999.2
2017-11-12T00:41:48.445Z,999.18
2017-11-12T00:42:58.423Z,999.15
2017-11-12T00:44:08.390Z,999.17
2017-11-12T00:45:18.382Z,999.22
2017-11-12T00:46:28.681Z,999.24
2017-11-12T00:47:38.658Z,999.18
2017-11-12T00:48:48.957Z,999.23
2017-11-12T00:49:58.939Z,999.25
2017-11-12T00:51:08.261Z,999.24
2017-11-12T00:52:18.242Z,999.3
2017-11-12T00:53:27.893Z,999.33
2017-11-12T00:54:37.870Z,999.25
2017-11-12T00:55:48.226Z,999.24
2017-11-12T00:56:58.197Z,999.29
2017-11-12T00:58:08.168Z,999.32
2017-11-12T00:59:18.172Z,999.23
2017-11-12T01:00:28.521Z,999.2
2017-11-12T01:01:37.844Z,999.26
2017-11-12T01:02:47.495Z,999.27
2017-11-12T01:03:57.501Z,999.26
2017-11-12T01:05:07.822Z,999.33
2017-11-12T01:06:17.466Z,999.28
2017-11-12T01:07:27.469Z,999.34
2017-11-12T01:08:37.780Z,999.41
2017-11-12T01:09:48.117Z,999.31
2017-11-12T01:10:58.417Z,999.26
2017-11-12T01:12:07.395Z,999.28
2017-11-12T01:13:17.711Z,999.31
2017-11-12T01:14:27.687Z,999.29
2017-11-12T01:15:37.686Z,999.31
2017-11-12T01:16:47.990Z,999.33
2017-11-12T01:17:57.959Z,999.29
2017-11-12T01:19:08.272Z,999.37
2017-11-12T01:20:18.592Z,999.28
2017-11-12T01:21:28.901Z,999.36
2017-11-12T01:22:39.211Z,999.32
2017-11-12T01:23:49.518Z,999.35
2017-11-12T01:24:59.816Z,999.42
2017-11-12T01:26:09.786Z,999.47
2017-11-12T01:27:20.091Z,999.34
2017-11-12T01:28:29.733Z,999.26
2017-11-12T01:29:40.048Z,999.37
2017-11-12T01:30:50.019Z,999.31
2017-11-12T01:31:59.995Z,999.34
2017-11-12T01:33:10.297Z,999.33
2017-11-12T01:34:20.607Z,999.34
2017-11-12T01:35:30.244Z,999.27
2017-11-12T01:36:39.610Z,999.3
2017-11-12T01:37:49.911Z,999.33
2017-11-12T01:38:59.584Z,999.3
2017-11-12T01:40:09.557Z,999.26
2017-11-12T01:41:19.852Z,999.18
2017-11-12T01:42:29.844Z,999.21
2017-11-12T01:43:39.148Z,999.25
2017-11-12T01:44:49.135Z,999.21
2017-11-12T01:45:59.134Z,999.23
2017-11-12T01:47:09.118Z,999.21
2017-11-12T01:48:19.085Z,999.24
2017-11-12T01:49:29.394Z,999.29
2017-11-12T01:50:39.742Z,999.32
2017-11-12T01:51:50.062Z,999.29
2017-11-12T01:53:00.047Z,999.26
2017-11-12T01:54:10.344Z,999.31
2017-11-12T01:55:20.319Z,999.28
2017-11-12T01:56:29.638Z,999.23
2017-11-12T01:57:39.956Z,999.27
2017-11-12T01:58:49.948Z,999.28
2017-11-12T01:59:59.626Z,999.24
2017-11-12T02:01:09.599Z,999.32
2017-11-12T02:02:19.258Z,999.47
2017-11-12T02:03:29.585Z,999.35
2017-11-12T02:04:39.896Z,999.39
2017-11-12T02:05:49.865Z,999.26
2017-11-12T02:06:59.834Z,999.23
2017-11-12T02:08:09.862Z,999.23
2017-11-12T02:09:19.830Z,999.29
2017-11-12T02:10:29.795Z,999.32
2017-11-12T02:11:39.122Z,999.31
2017-11-12T02:12:49.432Z,999.27
2017-11-12T02:13:59.743Z,999.37
2017-11-12T02:15:09.714Z,999.32
2017-11-12T02:16:19.347Z,999.32
2017-11-12T02:17:29.324Z,999.37
2017-11-12T02:18:39.294Z,999.31
2017-11-12T02:19:48.952Z,999.41
2017-11-12T02:20:58.594Z,999.35
2017-11-12T02:22:08.913Z,999.45
2017-11-12T02:23:19.227Z,999.43
2017-11-12T02:24:29.535Z,999.44
2017-11-12T02:25:39.853Z,999.37
2017-11-12T02:26:50.160Z,999.42
2017-11-12T02:28:00.464Z,999.42
2017-11-12T02:29:10.446Z,999.37
2017-11-12T02:30:20.746Z,999.43
2017-11-12T02:31:31.051Z,999.41
2017-11-12T02:32:41.355Z,999.43
2017-11-12T02:33:51.335Z,999.37
2017-11-12T02:35:01.668Z,999.34
2017-11-12T02:36:11.665Z,999.39
2017-11-12T02:37:21.968Z,999.4
2017-11-12T02:38:32.302Z,999.38
2017-11-12T02:39:42.278Z,999.48
2017-11-12T02:40:51.259Z,999.4
2017-11-12T02:42:01.563Z,999.47
2017-11-12T02:43:11.213Z,999.37
2017-11-12T02:44:20.849Z,999.47
2017-11-12T02:45:31.144Z,999.45
2017-11-12T02:46:41.470Z,999.55
2017-11-12T02:47:51.820Z,999.57
2017-11-12T02:49:02.128Z,999.51
2017-11-12T02:50:11.773Z,999.5
2017-11-12T02:51:21.742Z,999.49
2017-11-12T02:52:31.393Z,999.47
2017-11-12T02:53:41.370Z,999.51
2017-11-12T02:54:51.360Z,999.49
2017-11-12T02:56:01.662Z,999.49
2017-11-12T02:57:12.012Z,999.49
2017-11-12T02:58:21.982Z,999.49
2017-11-12T02:59:32.275Z,999.49
2017-11-12T03:00:42.577Z,999.57
2017-11-12T03:01:52.881Z,999.53
2017-11-12T03:03:03.177Z,999.47
2017-11-12T03:04:13.489Z,999.43
2017-11-12T03:05:23.787Z,999.51
2017-11-12T03:06:34.091Z,999.49
2017-11-12T03:07:44.062Z,999.49
2017-11-12T03:08:53.720Z,999.51
2017-11-12T03:10:03.742Z,999.55
2017-11-12T03:11:13.728Z,999.55
2017-11-12T03:12:23.388Z,999.56
2017-11-12T03:13:33.369Z,999.55
2017-11-12T03:14:43.335Z,999.53
2017-11-12T03:15:53.338Z,999.57
2017-11-12T03:17:03.633Z,999.56
2017-11-12T03:18:13.939Z,999.55
2017-11-12T03:19:23.910Z,999.54
2017-11-12T03:20:32.890Z,999.51
2017-11-12T03:21:42.858Z,999.49
2017-11-12T03:22:53.163Z,999.45
2017-11-12T03:24:03.130Z,999.48
2017-11-12T03:25:13.430Z,999.44
2017-11-12T03:26:23.072Z,999.44
2017-11-12T03:27:33.377Z,999.49
2017-11-12T03:28:43.677Z,999.48
2017-11-12T03:29:53.651Z,999.48
2017-11-12T03:31:03.976Z,999.47
2017-11-12T03:32:13.954Z,999.45
2017-11-12T03:33:24.252Z,999.49
2017-11-12T03:34:34.599Z,999.47
2017-11-12T03:35:44.911Z,999.45
2017-11-12T03:36:55.210Z,999.55
2017-11-12T03:38:05.182Z,999.51
2017-11-12T03:39:15.475Z,999.49
2017-11-12T03:40:25.780Z,999.49
2017-11-12T03:41:35.455Z,999.52
2017-11-12T03:42:45.441Z,999.5
2017-11-12T03:43:54.748Z,999.56
2017-11-12T03:45:04.720Z,999.59
2017-11-12T03:46:14.696Z,999.53
2017-11-12T03:47:24.659Z,999.52
2017-11-12T03:48:34.654Z,999.58
2017-11-12T03:49:44.624Z,999.5
2017-11-12T03:50:54.267Z,999.5
2017-11-12T03:52:04.236Z,999.52
2017-11-12T03:53:14.207Z,999.49
2017-11-12T03:54:24.185Z,999.49
2017-11-12T03:55:34.476Z,999.5
2017-11-12T03:56:44.786Z,999.58
2017-11-12T03:57:55.108Z,999.6
2017-11-12T03:59:05.091Z,999.52
2017-11-12T04:00:15.064Z,999.52
2017-11-12T04:01:25.360Z,999.52
2017-11-12T04:02:35.327Z,999.55
2017-11-12T04:03:45.625Z,999.51
2017-11-12T04:04:55.916Z,999.51
2017-11-12T04:06:06.208Z,999.55
2017-11-12T04:07:16.180Z,999.52
2017-11-12T04:08:26.142Z,999.52
2017-11-12T04:09:36.108Z,999.51
2017-11-12T04:10:46.398Z,999.47
2017-11-12T04:11:56.384Z,999.54
2017-11-12T04:13:06.355Z,999.45
2017-11-12T04:14:16.001Z,999.51
2017-11-12T04:15:26.298Z,999.47
2017-11-12T04:16:36.595Z,999.49
2017-11-12T04:17:45.909Z,999.47
2017-11-12T04:18:55.538Z,999.47
2017-11-12T04:20:05.518Z,999.54
2017-11-12T04:21:15.820Z,999.5
2017-11-12T04:22:26.148Z,999.49
2017-11-12T04:23:36.125Z,999.52
2017-11-12T04:24:46.089Z,999.47
2017-11-12T04:25:56.391Z,999.41
2017-11-12T04:27:06.696Z,999.41
2017-11-12T04:28:16.997Z,999.44
2017-11-12T04:29:26.966Z,999.39
2017-11-12T04:30:36.610Z,999.43
2017-11-12T04:31:46.901Z,999.44
2017-11-12T04:32:56.890Z,999.49
2017-11-12T04:34:06.885Z,999.44
2017-11-12T04:35:16.864Z,999.48
2017-11-12T04:36:27.183Z,999.46
2017-11-12T04:37:36.830Z,999.39
2017-11-12T04:38:46.469Z,999.41
2017-11-12T04:39:55.786Z,999.39
2017-11-12T04:41:06.088Z,999.44
2017-11-12T04:42:16.057Z,999.46
2017-11-12T04:43:26.602Z,999.42
2017-11-12T04:44:36.912Z,999.42
2017-11-12T04:45:47.225Z,999.38
2017-11-12T04:46:57.185Z,999.42
2017-11-12T04:48:07.494Z,999.41
2017-11-12T04:49:16.806Z,999.41
2017-11-12T04:50:26.772Z,999.44
2017-11-12T04:51:37.067Z,999.52
2017-11-12T04:52:46.705Z,999.42
2017-11-12T04:53:56.359Z,999.45
2017-11-12T04:55:06.665Z,999.48
2017-11-12T04:56:15.992Z,999.43
2017-11-12T04:57:26.006Z,999.4
2017-11-12T04:58:36.298Z,999.4
2017-11-12T04:59:46.597Z,999.4
2017-11-12T05:00:56.569Z,999.43
2017-11-12T05:02:05.884Z,999.43
2017-11-12T05:03:15.865Z,999.41
2017-11-12T05:04:25.842Z,999.39
2017-11-12T05:05:35.812Z,999.37
2017-11-12T05:06:45.773Z,999.37
2017-11-12T05:07:55.746Z,999.33
2017-11-12T05:09:05.374Z,999.29
2017-11-12T05:10:15.345Z,999.29
2017-11-12T05:11:25.657Z,999.33
2017-11-12T05:12:35.966Z,999.28
2017-11-12T05:13:45.925Z,999.24
2017-11-12T05:14:55.887Z,999.21
2017-11-12T05:16:05.866Z,999.2
2017-11-12T05:17:15.840Z,999.19
2017-11-12T05:18:26.135Z,999.22
2017-11-12T05:19:36.430Z,999.18
2017-11-12T05:20:46.398Z,999.25
2017-11-12T05:21:56.372Z,999.19
2017-11-12T05:23:06.033Z,999.16
2017-11-12T05:24:16.003Z,999.24
2017-11-12T05:25:25.640Z,999.22
2017-11-12T05:26:35.948Z,999.27
2017-11-12T05:27:46.261Z,999.25
2017-11-12T05:28:56.561Z,999.25
2017-11-12T05:30:06.527Z,999.28
2017-11-12T05:31:16.826Z,999.26
2017-11-12T05:32:26.124Z,999.19
2017-11-12T05:33:35.104Z,999.23
2017-11-12T05:34:44.438Z,999.21
2017-11-12T05:35:54.788Z,999.24
2017-11-12T05:37:04.768Z,999.14
2017-11-12T05:38:15.093Z,999.3
2017-11-12T05:39:25.074Z,999.27
2017-11-12T05:40:35.374Z,999.21
2017-11-12T05:41:45.667Z,999.19
2017-11-12T05:42:55.972Z,999.11
2017-11-12T05:44:06.272Z,999.1
2017-11-12T05:45:16.520Z,999.03
2017-11-12T05:46:26.169Z,999.01
2017-11-12T05:47:36.467Z,999.06
2017-11-12T05:48:46.781Z,999.07
2017-11-12T05:49:56.759Z,999.05
2017-11-12T05:51:06.723Z,999.08
2017-11-12T05:52:16.362Z,999.04
2017-11-12T05:53:26.365Z,999.06
2017-11-12T05:54:36.000Z,999.07
2017-11-12T05:55:46.309Z,999.07
2017-11-12T05:56:56.291Z,999.06
2017-11-12T05:58:06.282Z,999.13
2017-11-12T05:59:16.258Z,999.07
2017-11-12T06:00:26.256Z,999.1
2017-11-12T06:01:36.553Z,999.09
2017-11-12T06:02:46.849Z,999.12
2017-11-12T06:03:57.144Z,999.08
2017-11-12T06:05:07.129Z,999.1
2017-11-12T06:06:17.425Z,999.06
2017-11-12T06:07:27.736Z,999.1
2017-11-12T06:08:37.371Z,999.13
2017-11-12T06:09:47.356Z,999.11
2017-11-12T06:10:57.332Z,999.13
2017-11-12T06:12:07.307Z,999.12
2017-11-12T06:13:17.616Z,999.14
2017-11-12T06:14:27.253Z,999.13
2017-11-12T06:15:37.217Z,999.1
2017-11-12T06:16:46.862Z,999.1
2017-11-12T06:17:57.159Z,999.13
2017-11-12T06:19:07.129Z,999.1
2017-11-12T06:20:17.436Z,999.08
2017-11-12T06:21:27.404Z,999.09
2017-11-12T06:22:37.700Z,999.05
2017-11-12T06:23:47.352Z,999.06
2017-11-12T06:24:57.330Z,999.08
2017-11-12T06:26:07.296Z,998.98
2017-11-12T06:27:17.594Z,998.96
2017-11-12T06:28:27.573Z,998.94
2017-11-12T06:29:37.546Z,998.98
2017-11-12T06:30:47.840Z,998.96
2017-11-12T06:31:58.135Z,998.97
2017-11-12T06:33:08.436Z,998.95
2017-11-12T06:34:18.791Z,998.96
2017-11-12T06:35:29.111Z,998.96
2017-11-12T06:36:38.740Z,998.93
2017-11-12T06:37:48.713Z,998.95
2017-11-12T06:38:59.019Z,998.89
2017-11-12T06:40:08.998Z,998.87
2017-11-12T06:41:19.294Z,998.85
2017-11-12T06:42:29.603Z,998.86
2017-11-12T06:43:39.241Z,998.85
2017-11-12T06:44:49.206Z,998.83
2017-11-12T06:45:58.861Z,998.84
2017-11-12T06:47:08.502Z,998.86
2017-11-12T06:48:18.794Z,998.83
2017-11-12T06:49:28.773Z,998.8
2017-11-12T06:50:38.730Z,998.81
2017-11-12T06:51:49.029Z,998.82
2017-11-12T06:52:58.993Z,998.78
2017-11-12T06:54:08.316Z,998.77
2017-11-12T06:55:17.966Z,998.75
2017-11-12T06:56:28.268Z,998.74
2017-11-12T06:57:38.561Z,998.69
2017-11-12T06:58:48.856Z,998.67
2017-11-12T06:59:58.831Z,998.61
2017-11-12T07:01:08.480Z,998.58
2017-11-12T07:02:18.795Z,998.64
2017-11-12T07:03:29.093Z,998.7
2017-11-12T07:04:39.083Z,998.66
2017-11-12T07:05:48.722Z,998.65
2017-11-12T07:06:58.393Z,998.59
2017-11-12T07:08:08.032Z,998.59
2017-11-12T07:09:18.026Z,998.58
2017-11-12T07:10:27.990Z,998.53
2017-11-12T07:11:38.318Z,998.51
2017-11-12T07:12:48.292Z,998.51
2017-11-12T07:13:58.277Z,998.5
2017-11-12T07:15:08.586Z,998.53
2017-11-12T07:16:18.245Z,998.58
2017-11-12T07:17:27.893Z,998.55
2017-11-12T07:18:37.900Z,998.54
2017-11-12T07:19:47.641Z,998.55
2017-11-12T07:20:57.937Z,998.59
2017-11-12T07:22:07.576Z,998.62
2017-11-12T07:23:17.876Z,998.63
2017-11-12T07:24:27.865Z,998.65
2017-11-12T07:25:37.843Z,998.59
2017-11-12T07:26:47.820Z,998.72
2017-11-12T07:27:58.111Z,998.63
2017-11-12T07:29:08.289Z,998.67
2017-11-12T07:30:18.284Z,998.61
2017-11-12T07:31:28.580Z,998.59
2017-11-12T07:32:38.220Z,998.6
2017-11-12T07:33:48.536Z,998.62
2017-11-12T07:34:58.179Z,998.64
2017-11-12T07:36:07.814Z,998.57
2017-11-12T07:37:17.798Z,998.59
2017-11-12T07:38:27.469Z,998.6
2017-11-12T07:39:37.467Z,998.54
2017-11-12T07:40:46.458Z,998.5
2017-11-12T07:41:56.461Z,998.53
2017-11-12T07:43:06.769Z,998.52
2017-11-12T07:44:16.435Z,998.51
2017-11-12T07:45:26.407Z,998.5
2017-11-12T07:46:36.375Z,998.47
2017-11-12T07:47:46.683Z,998.52
2017-11-12T07:48:56.335Z,998.48
2017-11-12T07:50:05.975Z,998.5
2017-11-12T07:51:16.284Z,998.49
2017-11-12T07:52:26.605Z,998.47
2017-11-12T07:53:36.917Z,998.46
2017-11-12T07:54:47.223Z,998.47
2017-11-12T07:55:56.547Z,998.45
2017-11-12T07:57:06.555Z,998.48
2017-11-12T07:58:16.197Z,998.47
2017-11-12T07:59:26.501Z,998.47
2017-11-12T08:00:36.147Z,998.52
2017-11-12T08:01:46.458Z,998.44
2017-11-12T08:02:56.770Z,998.51
2017-11-12T08:04:07.063Z,998.51
2017-11-12T08:05:17.039Z,998.52
2017-11-12T08:06:27.019Z,998.5
2017-11-12T08:07:37.332Z,998.47
2017-11-12T08:08:47.303Z,998.47
2017-11-12T08:09:57.285Z,998.49
2017-11-12T08:11:07.279Z,998.52
2017-11-12T08:12:17.574Z,998.48
2017-11-12T08:13:27.883Z,998.52
2017-11-12T08:14:37.871Z,998.49
2017-11-12T08:15:47.514Z,998.45
2017-11-12T08:16:57.817Z,998.5
2017-11-12T08:18:07.810Z,998.47
2017-11-12T08:19:17.454Z,998.48
2017-11-12T08:20:27.443Z,998.46
2017-11-12T08:21:37.741Z,998.46
2017-11-12T08:22:48.052Z,998.35
2017-11-12T08:23:58.341Z,998.38
2017-11-12T08:25:08.323Z,998.32
2017-11-12T08:26:18.311Z,998.34
2017-11-12T08:27:27.631Z,998.35
2017-11-12T08:28:37.934Z,998.32
2017-11-12T08:29:47.584Z,998.31
2017-11-12T08:30:57.926Z,998.27
2017-11-12T08:32:07.916Z,998.23
2017-11-12T08:33:18.241Z,998.23
2017-11-12T08:34:27.894Z,998.26
2017-11-12T08:35:38.205Z,998.2
2017-11-12T08:36:47.518Z,998.23
2017-11-12T08:37:57.823Z,998.25
2017-11-12T08:39:07.471Z,998.23
2017-11-12T08:40:17.452Z,998.24
2017-11-12T08:41:27.787Z,998.24
2017-11-12T08:42:38.097Z,998.21
2017-11-12T08:43:48.076Z,998.2
2017-11-12T08:44:58.377Z,998.16
2017-11-12T08:46:08.028Z,998.08
2017-11-12T08:47:18.007Z,998.17
2017-11-12T08:48:28.346Z,998.13
2017-11-12T08:49:38.324Z,998.01
2017-11-12T08:50:48.330Z,998.09
2017-11-12T08:51:58.646Z,998.06
2017-11-12T08:53:08.944Z,998.06
2017-11-12T08:54:18.905Z,998.06
2017-11-12T08:55:29.201Z,997.98
2017-11-12T08:56:38.835Z,998
2017-11-12T08:57:48.487Z,998.05
2017-11-12T08:58:58.806Z,998.05
2017-11-12T09:00:09.122Z,997.96
2017-11-12T09:01:19.442Z,997.89
2017-11-12T09:02:29.423Z,997.94
2017-11-12T09:03:39.420Z,997.9
2017-11-12T09:04:49.105Z,997.87
2017-11-12T09:05:59.095Z,997.85
2017-11-12T09:07:08.413Z,997.87
2017-11-12T09:08:18.410Z,997.85
2017-11-12T09:09:28.706Z,997.87
2017-11-12T09:10:39.010Z,997.81
2017-11-12T09:11:48.661Z,997.75
2017-11-12T09:12:58.666Z,997.83
2017-11-12T09:14:08.309Z,997.78
2017-11-12T09:15:18.285Z,997.8
2017-11-12T09:16:28.603Z,997.74
2017-11-12T09:17:38.241Z,997.81
2017-11-12T09:18:48.543Z,997.79
2017-11-12T09:19:58.190Z,997.78
2017-11-12T09:21:07.857Z,997.84
2017-11-12T09:22:18.434Z,997.8
2017-11-12T09:23:28.770Z,997.79
2017-11-12T09:24:38.415Z,997.79
2017-11-12T09:25:48.396Z,997.76
2017-11-12T09:26:58.376Z,997.76
2017-11-12T09:28:08.699Z,997.76
2017-11-12T09:29:18.682Z,997.7
2017-11-12T09:30:28.669Z,997.71
2017-11-12T09:31:38.311Z,997.67
2017-11-12T09:32:48.876Z,997.67
2017-11-12T09:33:58.852Z,997.68
2017-11-12T09:35:08.833Z,997.72
2017-11-12T09:36:19.148Z,997.62
2017-11-12T09:37:29.477Z,997.61
2017-11-12T09:38:39.772Z,997.57
2017-11-12T09:39:49.753Z,997.58
2017-11-12T09:40:59.721Z,997.6
2017-11-12T09:42:09.739Z,997.52
2017-11-12T09:43:19.388Z,997.53
2017-11-12T09:44:29.030Z,997.54
2017-11-12T09:45:38.693Z,997.49
2017-11-12T09:46:48.003Z,997.52
2017-11-12T09:47:58.449Z,997.46
2017-11-12T09:49:08.424Z,997.44
2017-11-12T09:50:18.726Z,997.42
2017-11-12T09:51:28.703Z,997.46
2017-11-12T09:52:38.695Z,997.44
2017-11-12T09:53:48.357Z,997.5
2017-11-12T09:54:58.660Z,997.53
2017-11-12T09:56:08.981Z,997.45
2017-11-12T09:57:19.285Z,997.41
2017-11-12T09:58:29.581Z,997.48
2017-11-12T09:59:39.497Z,997.43
2017-11-12T10:00:49.167Z,997.42
2017-11-12T10:01:59.489Z,997.41
2017-11-12T10:03:09.459Z,997.38
2017-11-12T10:04:19.117Z,997.36
2017-11-12T10:05:29.416Z,997.4
2017-11-12T10:06:39.750Z,997.39
2017-11-12T10:07:49.720Z,997.42
2017-11-12T10:08:59.707Z,997.38
2017-11-12T10:10:09.025Z,997.37
2017-11-12T10:11:19.357Z,997.35
2017-11-12T10:12:29.714Z,997.28
2017-11-12T10:13:39.722Z,997.22
2017-11-12T10:14:49.700Z,997.26
2017-11-12T10:15:59.668Z,997.24
2017-11-12T10:17:09.976Z,997.25
2017-11-12T10:18:20.282Z,997.26
2017-11-12T10:19:30.272Z,997.23
2017-11-12T10:20:40.248Z,997.23
2017-11-12T10:21:50.215Z,997.2
2017-11-12T10:23:00.210Z,997.2
2017-11-12T10:24:10.524Z,997.12
2017-11-12T10:25:20.172Z,997.13
2017-11-12T10:26:30.145Z,997.14
2017-11-12T10:27:40.466Z,997.14
2017-11-12T10:28:50.162Z,997.14
2017-11-12T10:29:59.804Z,997.09
2017-11-12T10:31:09.795Z,997.05
2017-11-12T10:32:20.101Z,997.06
2017-11-12T10:33:30.422Z,997.09
2017-11-12T10:34:40.739Z,997.12
2017-11-12T10:35:51.065Z,997.16
2017-11-12T10:37:01.366Z,997.21
2017-11-12T10:38:11.349Z,997.14
2017-11-12T10:39:21.648Z,997.18
2017-11-12T10:40:31.301Z,997.06
2017-11-12T10:41:41.609Z,997.11
2017-11-12T10:42:51.605Z,997.08
2017-11-12T10:44:01.949Z,997.04
2017-11-12T10:45:11.925Z,996.99
2017-11-12T10:46:22.243Z,997.03
2017-11-12T10:47:33.697Z,997.04
2017-11-12T10:48:43.362Z,997.07
2017-11-12T10:49:53.669Z,997.03
2017-11-12T10:51:03.665Z,997.05
2017-11-12T10:52:13.968Z,996.97
2017-11-12T10:53:24.003Z,996.96
2017-11-12T10:54:33.997Z,996.99
2017-11-12T10:55:44.301Z,997.02
2017-11-12T10:56:54.294Z,996.96
2017-11-12T10:58:04.282Z,996.94
2017-11-12T10:59:14.577Z,996.93
2017-11-12T11:00:24.245Z,996.96
2017-11-12T11:01:34.230Z,996.95
2017-11-12T11:02:44.217Z,996.94
2017-11-12T11:03:54.201Z,996.97
2017-11-12T11:05:04.205Z,996.94
2017-11-12T11:06:14.508Z,996.87
2017-11-12T11:07:24.514Z,996.86
2017-11-12T11:08:34.487Z,996.84
2017-11-12T11:09:44.809Z,996.8
2017-11-12T11:10:54.791Z,996.82
2017-11-12T11:12:05.102Z,996.73
2017-11-12T11:13:14.761Z,996.68
2017-11-12T11:14:24.759Z,996.67
2017-11-12T11:15:34.742Z,996.65
2017-11-12T11:16:45.041Z,996.65
2017-11-12T11:17:55.360Z,996.69
2017-11-12T11:19:05.656Z,996.69
2017-11-12T11:20:15.643Z,996.64
2017-11-12T11:21:25.618Z,996.61
2017-11-12T11:22:34.974Z,996.62
2017-11-12T11:23:44.960Z,996.55
2017-11-12T11:24:55.274Z,996.52
2017-11-12T11:26:04.927Z,996.51
2017-11-12T11:27:15.243Z,996.54
2017-11-12T11:28:25.276Z,996.55
2017-11-12T11:29:35.256Z,996.49
2017-11-12T11:30:45.558Z,996.49
2017-11-12T11:31:55.579Z,996.43
2017-11-12T11:33:05.575Z,996.42
2017-11-12T11:34:15.894Z,996.39
2017-11-12T11:35:25.546Z,996.4
2017-11-12T11:36:35.853Z,996.4
2017-11-12T11:37:45.521Z,996.45
2017-11-12T11:38:55.498Z,996.37
2017-11-12T11:40:05.499Z,996.41
2017-11-12T11:41:15.829Z,996.39
2017-11-12T11:42:25.809Z,996.32
2017-11-12T11:43:35.812Z,996.33
2017-11-12T11:44:45.456Z,996.33
2017-11-12T11:45:55.454Z,996.32
2017-11-12T11:47:05.800Z,996.33
2017-11-12T11:48:16.124Z,996.35
2017-11-12T11:49:25.763Z,996.28
2017-11-12T11:50:36.074Z,996.29
2017-11-12T11:51:46.387Z,996.29
2017-11-12T11:52:56.371Z,996.23
2017-11-12T11:54:06.691Z,996.2
2017-11-12T11:55:17.029Z,996.17
2017-11-12T11:56:27.061Z,996.19
2017-11-12T11:57:36.975Z,996.19
2017-11-12T11:58:46.993Z,996.2
2017-11-12T11:59:57.335Z,996.2
2017-11-12T12:01:07.645Z,996.2
2017-11-12T12:02:17.975Z,996.22
2017-11-12T12:03:28.279Z,996.16
2017-11-12T12:04:38.261Z,996.08
2017-11-12T12:05:48.592Z,996.12
2017-11-12T12:06:58.582Z,996.11
2017-11-12T12:08:08.249Z,996.13
2017-11-12T12:09:18.652Z,996.12
2017-11-12T12:10:28.242Z,996.1
2017-11-12T12:11:38.511Z,996
2017-11-12T12:12:48.472Z,996.02
2017-11-12T12:13:58.121Z,995.94
2017-11-12T12:15:08.090Z,995.94
2017-11-12T12:16:18.411Z,995.94
2017-11-12T12:17:28.739Z,995.93
2017-11-12T12:18:39.057Z,995.87
2017-11-12T12:19:49.034Z,995.91
2017-11-12T12:20:59.021Z,995.87
2017-11-12T12:22:09.320Z,995.82
2017-11-12T12:23:18.974Z,995.79
2017-11-12T12:24:29.316Z,995.73
2017-11-12T12:25:38.998Z,995.76
2017-11-12T12:26:49.305Z,995.71
2017-11-12T12:27:59.284Z,995.78
2017-11-12T12:29:09.624Z,995.69
2017-11-12T12:30:19.624Z,995.7
2017-11-12T12:31:29.606Z,995.65
2017-11-12T12:32:39.933Z,995.63
2017-11-12T12:33:49.920Z,995.57
2017-11-12T12:35:00.232Z,995.5
2017-11-12T12:36:10.540Z,995.5
2017-11-12T12:37:20.859Z,995.47
2017-11-12T12:38:31.167Z,995.43
2017-11-12T12:39:40.845Z,995.4
2017-11-12T12:40:50.816Z,995.4
2017-11-12T12:42:01.131Z,995.4
2017-11-12T12:43:11.376Z,995.38
2017-11-12T12:44:21.671Z,995.35
2017-11-12T12:45:31.335Z,995.34
2017-11-12T12:46:41.640Z,995.29
2017-11-12T12:47:51.985Z,995.23
2017-11-12T12:49:02.314Z,995.22
2017-11-12T12:50:11.963Z,995.18
2017-11-12T12:51:22.275Z,995.11
2017-11-12T12:52:31.933Z,995.07
2017-11-12T12:53:42.245Z,995.09
2017-11-12T12:54:52.607Z,995.01
2017-11-12T12:56:02.930Z,994.96
2017-11-12T12:57:13.237Z,994.91
2017-11-12T12:58:23.541Z,994.89
2017-11-12T12:59:33.192Z,994.84
2017-11-12T13:00:43.189Z,994.79
2017-11-12T13:01:53.522Z,994.76
2017-11-12T13:03:03.502Z,994.69
2017-11-12T13:04:13.480Z,994.66
2017-11-12T13:05:23.810Z,994.68
2017-11-12T13:06:33.809Z,994.64
2017-11-12T13:07:43.139Z,994.62
2017-11-12T13:08:53.141Z,994.66
2017-11-12T13:10:03.459Z,994.69
2017-11-12T13:11:13.445Z,994.69
2017-11-12T13:12:23.751Z,994.62
2017-11-12T13:13:34.114Z,994.56
2017-11-12T13:14:44.104Z,994.52
2017-11-12T13:15:54.079Z,994.51
2017-11-12T13:17:04.063Z,994.47
2017-11-12T13:18:14.360Z,994.45
2017-11-12T13:19:24.683Z,994.37
2017-11-12T13:20:34.652Z,994.39
2017-11-12T13:21:44.960Z,994.38
2017-11-12T13:22:55.269Z,994.4
2017-11-12T13:24:05.256Z,994.38
2017-11-12T13:25:14.916Z,994.35
2017-11-12T13:26:25.220Z,994.4
2017-11-12T13:27:35.214Z,994.45
2017-11-12T13:28:45.516Z,994.52
2017-11-12T13:29:55.846Z,994.58
2017-11-12T13:31:06.173Z,994.58
2017-11-12T13:32:16.479Z,994.64
2017-11-12T13:33:26.456Z,994.68
2017-11-12T13:34:36.435Z,994.73
2017-11-12T13:35:46.763Z,994.84
2017-11-12T13:36:56.747Z,994.83
2017-11-12T13:38:06.729Z,994.88
2017-11-12T13:39:17.037Z,994.83
2017-11-12T13:40:27.343Z,994.8
2017-11-12T13:41:37.322Z,994.84
2017-11-12T13:42:47.630Z,994.88
2017-11-12T13:43:57.618Z,994.92
2017-11-12T13:45:07.310Z,994.96
2017-11-12T13:46:17.309Z,994.99
2017-11-12T13:47:27.638Z,994.97
2017-11-12T13:48:37.308Z,994.99
2017-11-12T13:49:47.629Z,994.97
2017-11-12T13:50:57.622Z,994.96
2017-11-12T13:52:07.925Z,994.98
2017-11-12T13:53:18.231Z,994.98
2017-11-12T13:54:27.911Z,994.95
2017-11-12T13:55:37.908Z,994.96
2017-11-12T13:56:47.571Z,994.95
2017-11-12T13:57:57.555Z,994.98
2017-11-12T13:59:07.879Z,995.04
2017-11-12T14:00:18.196Z,995.03
2017-11-12T14:01:27.847Z,994.99
2017-11-12T14:02:37.833Z,995.02
2017-11-12T14:03:48.139Z,995.01
2017-11-12T14:04:58.461Z,995.03
2017-11-12T14:06:08.112Z,995.02
2017-11-12T14:07:18.417Z,995.06
2017-11-12T14:08:28.101Z,995.03
2017-11-12T14:09:38.415Z,995.05
2017-11-12T14:10:48.394Z,995.03
2017-11-12T14:11:58.684Z,995.07
2017-11-12T14:13:08.333Z,995.02
2017-11-12T14:14:18.648Z,995
2017-11-12T14:15:28.622Z,995.01
2017-11-12T14:16:38.921Z,994.99
2017-11-12T14:17:49.235Z,994.92
2017-11-12T14:18:59.215Z,994.92
2017-11-12T14:20:09.189Z,994.95
2017-11-12T14:21:19.495Z,994.9
2017-11-12T14:22:29.796Z,994.89
2017-11-12T14:23:39.784Z,994.91
2017-11-12T14:24:49.778Z,994.86
2017-11-12T14:26:00.088Z,994.87
2017-11-12T14:27:10.412Z,994.76
2017-11-12T14:28:20.716Z,994.78
2017-11-12T14:29:31.049Z,994.74
2017-11-12T14:30:40.371Z,994.71
2017-11-12T14:31:50.690Z,994.69
2017-11-12T14:33:01.025Z,994.64
2017-11-12T14:34:11.021Z,994.68
2017-11-12T14:35:20.685Z,994.65
2017-11-12T14:36:30.998Z,994.7
2017-11-12T14:37:41.309Z,994.69